Rice, Minnesota
Current Conditions -  °F | °C
As of 10:13 AM on Monday 26 Jan 2015 (Local Time) from KLXL Reporting Station
Clear Clear  
Wind Chill: 31°   Ceiling: Unl
Heat Index: 37°   Visibility: 10mi
Dew Point: 30°   Wind: 8mph
Humidity: 75%   Direction: 300°WNW
Pressure: 29.69"   Gusts: NA
Location:  45.75°N, 94.22°W
Report Text: KLXL 261613Z AUTO 30007KT 273V333 10SM CLR 03/M01 A2969 RMK AO2
Loading
Personal Weather Stations






























Interactive Weather Map New forecast layout! Learn more

10-Day Weather Forecast

Advertisements
Track Severe Weather on mobile